PWSweather.com
Personal Weather Stations
Station Observations
KTNBARTL6
Rockyford Subdivision, Bartlett, TN 38002

Rockyford SubdivisionBartlett, TN 38002

Lat: 35.2684679, Lon: -89.8370406

Elevation: 260

Station Type: Davis Vantage Pro2 Wireless

http://www.memphisweather.net/wxlive.shtml

Latest ConditionsUpdated 5:05:05 AM CST Thursday, Nov 23, 2017
Currently Today's Max Today's Min Today's Average
Temperature 26.9°F-2.8°C 28.7°F-1.8°C 24.8°F-4.0°C 26.5°F-3.1°C
Dew Point 24.6°F-4.1°C 25.1°F-3.8°C 22.3°F-5.4°C 23.7°F-4.6°C
Winds Calm Calm Calm NWCalm NW - Calm Calm
Wind Gusts -- -- - -
Humidity 91% 91% 85% 89%
Pressure 30.22 in1023.4 mb 30.26 in1024.7 mb 30.21 in1023.0 mb -
Hour Temp Dew Point Humidity Winds Wind Gusts Pressure Precip Precip Rate Daily Precip Total
05:05 AM 26.9°F-2.8°C 24.6°F-4.1°C 91% Calm Calm -- 30.22 in1023.4 mb 0.00 in0.0 mm 0.00 in0.0 mm 0.00 in0.0 mm
04:55 AM 26.1°F-3.3°C 23.8°F-4.6°C 91% Calm Calm -- 30.22 in1023.4 mb 0.00 in0.0 mm 0.00 in0.0 mm 0.00 in0.0 mm
04:45 AM 25.5°F-3.6°C 23.2°F-4.9°C 91% Calm Calm -- 30.22 in1023.4 mb 0.00 in0.0 mm 0.00 in0.0 mm 0.00 in0.0 mm
04:35 AM 25.2°F-3.8°C 23.0°F-5.0°C 91% Calm Calm -- 30.22 in1023.4 mb 0.00 in0.0 mm 0.00 in0.0 mm 0.00 in0.0 mm
04:25 AM 24.8°F-4.0°C 22.6°F-5.2°C 91% Calm Calm -- 30.22 in1023.4 mb 0.00 in0.0 mm 0.00 in0.0 mm 0.00 in0.0 mm
04:15 AM 24.9°F-3.9°C 22.7°F-5.2°C 91% Calm Calm -- 30.22 in1023.4 mb 0.00 in0.0 mm 0.00 in0.0 mm 0.00 in0.0 mm
04:05 AM 24.8°F-4.0°C 22.3°F-5.4°C 90% Calm Calm -- 30.22 in1023.4 mb 0.00 in0.0 mm 0.00 in0.0 mm 0.00 in0.0 mm
03:55 AM 25.0°F-3.9°C 22.5°F-5.3°C 90% Calm Calm -- 30.21 in1023.0 mb 0.00 in0.0 mm 0.00 in0.0 mm 0.00 in0.0 mm
03:45 AM 25.3°F-3.7°C 22.8°F-5.1°C 90% Calm Calm -- 30.21 in1023.0 mb 0.00 in0.0 mm 0.00 in0.0 mm 0.00 in0.0 mm
03:35 AM 26.0°F-3.3°C 23.2°F-4.9°C 89% Calm Calm -- 30.21 in1023.0 mb 0.00 in0.0 mm 0.00 in0.0 mm 0.00 in0.0 mm
03:25 AM 25.9°F-3.4°C 23.4°F-4.8°C 90% Calm Calm -- 30.21 in1023.0 mb 0.00 in0.0 mm 0.00 in0.0 mm 0.00 in0.0 mm
03:15 AM 26.2°F-3.2°C 23.4°F-4.8°C 89% Calm Calm -- 30.22 in1023.4 mb 0.00 in0.0 mm 0.00 in0.0 mm 0.00 in0.0 mm
03:05 AM 26.2°F-3.2°C 23.4°F-4.8°C 89% Calm Calm -- 30.22 in1023.4 mb 0.00 in0.0 mm 0.00 in0.0 mm 0.00 in0.0 mm
02:55 AM 26.2°F-3.2°C 23.4°F-4.8°C 89% Calm Calm -- 30.22 in1023.4 mb 0.00 in0.0 mm 0.00 in0.0 mm 0.00 in0.0 mm
02:45 AM 26.5°F-3.1°C 24.0°F-4.4°C 90% Calm Calm -- 30.23 in1023.7 mb 0.00 in0.0 mm 0.00 in0.0 mm 0.00 in0.0 mm
02:35 AM 26.1°F-3.3°C 23.3°F-4.8°C 89% Calm Calm -- 30.22 in1023.4 mb 0.00 in0.0 mm 0.00 in0.0 mm 0.00 in0.0 mm
02:25 AM 26.6°F-3.0°C 23.5°F-4.7°C 88% Calm Calm -- 30.22 in1023.4 mb 0.00 in0.0 mm 0.00 in0.0 mm 0.00 in0.0 mm
02:15 AM 26.8°F-2.9°C 24.0°F-4.4°C 89% Calm Calm -- 30.22 in1023.4 mb 0.00 in0.0 mm 0.00 in0.0 mm 0.00 in0.0 mm
02:05 AM 26.9°F-2.8°C 24.1°F-4.4°C 89% Calm Calm -- 30.22 in1023.4 mb 0.00 in0.0 mm 0.00 in0.0 mm 0.00 in0.0 mm
01:55 AM 26.6°F-3.0°C 24.1°F-4.4°C 90% Calm Calm -- 30.22 in1023.4 mb 0.00 in0.0 mm 0.00 in0.0 mm 0.00 in0.0 mm
01:45 AM 26.5°F-3.1°C 23.7°F-4.6°C 89% Calm Calm -- 30.22 in1023.4 mb 0.00 in0.0 mm 0.00 in0.0 mm 0.00 in0.0 mm
01:35 AM 26.9°F-2.8°C 23.6°F-4.7°C 87% Calm Calm -- 30.22 in1023.4 mb 0.00 in0.0 mm 0.00 in0.0 mm 0.00 in0.0 mm
01:25 AM 27.6°F-2.4°C 24.2°F-4.3°C 87% Calm Calm -- 30.22 in1023.4 mb 0.00 in0.0 mm 0.00 in0.0 mm 0.00 in0.0 mm
01:15 AM 27.7°F-2.4°C 24.6°F-4.1°C 88% Calm Calm -- 30.23 in1023.7 mb 0.00 in0.0 mm 0.00 in0.0 mm 0.00 in0.0 mm
01:05 AM 27.6°F-2.4°C 24.2°F-4.3°C 87% Calm Calm -- 30.23 in1023.7 mb 0.00 in0.0 mm 0.00 in0.0 mm 0.00 in0.0 mm
12:55 AM 27.4°F-2.6°C 24.1°F-4.4°C 87% Calm Calm -- 30.24 in1024.0 mb 0.00 in0.0 mm 0.00 in0.0 mm 0.00 in0.0 mm
12:45 AM 27.8°F-2.3°C 24.4°F-4.2°C 87% Calm Calm -- 30.24 in1024.0 mb 0.00 in0.0 mm 0.00 in0.0 mm 0.00 in0.0 mm
12:35 AM 27.6°F-2.4°C 24.2°F-4.3°C 87% Calm Calm -- 30.25 in1024.4 mb 0.00 in0.0 mm 0.00 in0.0 mm 0.00 in0.0 mm
12:25 AM 28.1°F-2.2°C 24.2°F-4.3°C 85% Calm Calm -- 30.25 in1024.4 mb 0.00 in0.0 mm 0.00 in0.0 mm 0.00 in0.0 mm
12:15 AM 28.7°F-1.8°C 25.1°F-3.8°C 86% Calm Calm -- 30.25 in1024.4 mb 0.00 in0.0 mm 0.00 in0.0 mm 0.00 in0.0 mm
12:05 AM 28.2°F-2.1°C 24.8°F-4.0°C 87% Calm Calm -- 30.26 in1024.7 mb 0.00 in0.0 mm 0.00 in0.0 mm 0.00 in0.0 mm